sensor_id;sensor_type;location;lat;lon;timestamp;P1;durP1;ratioP1;P2;durP2;ratioP2
18657;SDS011;9458;50.942;5.074;2022-08-24T00:02:22;4.78;;;4.38;;
18657;SDS011;9458;50.942;5.074;2022-08-24T00:04:50;5.53;;;5.03;;
18657;SDS011;9458;50.942;5.074;2022-08-24T00:07:20;5.32;;;4.55;;
18657;SDS011;9458;50.942;5.074;2022-08-24T00:09:48;5.05;;;4.63;;
18657;SDS011;9458;50.942;5.074;2022-08-24T00:12:15;5.95;;;5.40;;
18657;SDS011;9458;50.942;5.074;2022-08-24T00:14:43;5.88;;;4.85;;
18657;SDS011;9458;50.942;5.074;2022-08-24T00:17:11;4.72;;;4.32;;
18657;SDS011;9458;50.942;5.074;2022-08-24T00:19:39;6.20;;;4.75;;
18657;SDS011;9458;50.942;5.074;2022-08-24T00:22:15;6.68;;;4.88;;
18657;SDS011;9458;50.942;5.074;2022-08-24T00:24:45;5.82;;;4.80;;
18657;SDS011;9458;50.942;5.074;2022-08-24T00:27:13;5.18;;;4.68;;
18657;SDS011;9458;50.942;5.074;2022-08-24T00:29:42;5.75;;;5.25;;
18657;SDS011;9458;50.942;5.074;2022-08-24T00:32:11;6.25;;;5.65;;
18657;SDS011;9458;50.942;5.074;2022-08-24T00:34:39;5.93;;;5.00;;
18657;SDS011;9458;50.942;5.074;2022-08-24T00:37:06;5.43;;;4.85;;
18657;SDS011;9458;50.942;5.074;2022-08-24T00:39:34;6.13;;;5.53;;
18657;SDS011;9458;50.942;5.074;2022-08-24T00:42:02;9.40;;;5.60;;
18657;SDS011;9458;50.942;5.074;2022-08-24T00:44:31;6.15;;;5.55;;
18657;SDS011;9458;50.942;5.074;2022-08-24T00:47:00;5.85;;;5.35;;
18657;SDS011;9458;50.942;5.074;2022-08-24T00:49:33;6.40;;;5.03;;
18657;SDS011;9458;50.942;5.074;2022-08-24T00:52:06;8.77;;;5.57;;
18657;SDS011;9458;50.942;5.074;2022-08-24T00:54:38;7.55;;;5.53;;
18657;SDS011;9458;50.942;5.074;2022-08-24T00:57:10;5.45;;;4.97;;
18657;SDS011;9458;50.942;5.074;2022-08-24T00:59:40;7.40;;;4.75;;
18657;SDS011;9458;50.942;5.074;2022-08-24T01:02:11;6.00;;;5.50;;
18657;SDS011;9458;50.942;5.074;2022-08-24T01:04:42;5.63;;;5.10;;
18657;SDS011;9458;50.942;5.074;2022-08-24T01:07:14;6.10;;;5.50;;
18657;SDS011;9458;50.942;5.074;2022-08-24T01:09:42;6.78;;;6.18;;
18657;SDS011;9458;50.942;5.074;2022-08-24T01:12:11;6.90;;;6.30;;
18657;SDS011;9458;50.942;5.074;2022-08-24T01:14:39;6.88;;;6.18;;
18657;SDS011;9458;50.942;5.074;2022-08-24T01:17:08;8.45;;;6.50;;
18657;SDS011;9458;50.942;5.074;2022-08-24T01:19:54;6.57;;;5.97;;
18657;SDS011;9458;50.942;5.074;2022-08-24T01:22:29;7.00;;;5.72;;
18657;SDS011;9458;50.942;5.074;2022-08-24T01:25:06;6.55;;;5.70;;
18657;SDS011;9458;50.942;5.074;2022-08-24T01:27:35;7.80;;;6.00;;
18657;SDS011;9458;50.942;5.074;2022-08-24T01:30:06;6.68;;;5.85;;
18657;SDS011;9458;50.942;5.074;2022-08-24T01:32:36;7.38;;;6.13;;
18657;SDS011;9458;50.942;5.074;2022-08-24T01:35:05;7.30;;;6.57;;
18657;SDS011;9458;50.942;5.074;2022-08-24T01:37:33;6.53;;;5.93;;
18657;SDS011;9458;50.942;5.074;2022-08-24T01:40:03;7.13;;;5.95;;
18657;SDS011;9458;50.942;5.074;2022-08-24T01:42:34;6.78;;;6.07;;
18657;SDS011;9458;50.942;5.074;2022-08-24T01:45:03;7.18;;;6.47;;
18657;SDS011;9458;50.942;5.074;2022-08-24T01:47:33;6.95;;;6.25;;
18657;SDS011;9458;50.942;5.074;2022-08-24T01:50:01;6.10;;;5.60;;
18657;SDS011;9458;50.942;5.074;2022-08-24T01:52:30;7.80;;;5.90;;
18657;SDS011;9458;50.942;5.074;2022-08-24T01:54:58;7.13;;;6.43;;
18657;SDS011;9458;50.942;5.074;2022-08-24T01:57:28;7.88;;;6.90;;
18657;SDS011;9458;50.942;5.074;2022-08-24T01:59:55;7.68;;;6.97;;
18657;SDS011;9458;50.942;5.074;2022-08-24T02:02:24;8.15;;;7.35;;
18657;SDS011;9458;50.942;5.074;2022-08-24T02:04:54;7.18;;;6.57;;
18657;SDS011;9458;50.942;5.074;2022-08-24T02:07:22;7.13;;;6.43;;
18657;SDS011;9458;50.942;5.074;2022-08-24T02:09:49;9.27;;;6.38;;
18657;SDS011;9458;50.942;5.074;2022-08-24T02:12:18;7.35;;;6.63;;
18657;SDS011;9458;50.942;5.074;2022-08-24T02:14:48;8.23;;;7.03;;
18657;SDS011;9458;50.942;5.074;2022-08-24T02:17:16;7.45;;;6.75;;
18657;SDS011;9458;50.942;5.074;2022-08-24T02:19:44;8.45;;;7.50;;
18657;SDS011;9458;50.942;5.074;2022-08-24T02:22:12;8.32;;;7.28;;
18657;SDS011;9458;50.942;5.074;2022-08-24T02:24:40;8.63;;;7.43;;
18657;SDS011;9458;50.942;5.074;2022-08-24T02:27:07;7.90;;;7.10;;
18657;SDS011;9458;50.942;5.074;2022-08-24T02:29:34;8.35;;;7.55;;
18657;SDS011;9458;50.942;5.074;2022-08-24T02:32:04;8.35;;;7.50;;
18657;SDS011;9458;50.942;5.074;2022-08-24T02:34:32;8.00;;;7.03;;
18657;SDS011;9458;50.942;5.074;2022-08-24T02:37:00;8.27;;;7.47;;
18657;SDS011;9458;50.942;5.074;2022-08-24T02:39:27;8.60;;;7.72;;
18657;SDS011;9458;50.942;5.074;2022-08-24T02:41:54;9.07;;;8.18;;
18657;SDS011;9458;50.942;5.074;2022-08-24T02:44:22;8.88;;;7.97;;
18657;SDS011;9458;50.942;5.074;2022-08-24T02:46:49;8.65;;;7.85;;
18657;SDS011;9458;50.942;5.074;2022-08-24T02:49:20;8.52;;;7.18;;
18657;SDS011;9458;50.942;5.074;2022-08-24T02:51:48;8.38;;;7.55;;
18657;SDS011;9458;50.942;5.074;2022-08-24T02:54:16;8.15;;;7.45;;
18657;SDS011;9458;50.942;5.074;2022-08-24T02:56:45;9.25;;;8.35;;
18657;SDS011;9458;50.942;5.074;2022-08-24T02:59:14;10.60;;;8.45;;
18657;SDS011;9458;50.942;5.074;2022-08-24T03:01:43;9.13;;;8.23;;
18657;SDS011;9458;50.942;5.074;2022-08-24T03:04:21;9.23;;;8.20;;
18657;SDS011;9458;50.942;5.074;2022-08-24T03:06:58;7.95;;;7.15;;
18657;SDS011;9458;50.942;5.074;2022-08-24T03:09:32;8.70;;;7.82;;
18657;SDS011;9458;50.942;5.074;2022-08-24T03:11:59;9.52;;;7.85;;
18657;SDS011;9458;50.942;5.074;2022-08-24T03:14:28;10.85;;;8.85;;
18657;SDS011;9458;50.942;5.074;2022-08-24T03:16:57;11.07;;;8.63;;
18657;SDS011;9458;50.942;5.074;2022-08-24T03:19:27;10.57;;;8.32;;
18657;SDS011;9458;50.942;5.074;2022-08-24T03:21:54;8.50;;;7.80;;
18657;SDS011;9458;50.942;5.074;2022-08-24T03:24:23;8.93;;;8.10;;
18657;SDS011;9458;50.942;5.074;2022-08-24T03:26:52;9.43;;;8.38;;
18657;SDS011;9458;50.942;5.074;2022-08-24T03:29:20;9.63;;;8.65;;
18657;SDS011;9458;50.942;5.074;2022-08-24T03:31:48;10.30;;;9.23;;
18657;SDS011;9458;50.942;5.074;2022-08-24T03:34:16;10.00;;;9.07;;
18657;SDS011;9458;50.942;5.074;2022-08-24T03:36:46;10.00;;;9.00;;
18657;SDS011;9458;50.942;5.074;2022-08-24T03:39:14;9.77;;;8.77;;
18657;SDS011;9458;50.942;5.074;2022-08-24T03:41:42;10.15;;;9.15;;
18657;SDS011;9458;50.942;5.074;2022-08-24T03:44:10;10.25;;;9.20;;
18657;SDS011;9458;50.942;5.074;2022-08-24T03:46:38;9.45;;;8.55;;
18657;SDS011;9458;50.942;5.074;2022-08-24T03:49:07;9.23;;;8.32;;
18657;SDS011;9458;50.942;5.074;2022-08-24T03:51:36;9.73;;;8.75;;
18657;SDS011;9458;50.942;5.074;2022-08-24T03:54:08;9.90;;;8.88;;
18657;SDS011;9458;50.942;5.074;2022-08-24T03:56:37;9.40;;;8.50;;
18657;SDS011;9458;50.942;5.074;2022-08-24T03:59:06;9.73;;;8.57;;
18657;SDS011;9458;50.942;5.074;2022-08-24T04:01:35;9.45;;;8.25;;
18657;SDS011;9458;50.942;5.074;2022-08-24T04:04:02;9.68;;;8.25;;
18657;SDS011;9458;50.942;5.074;2022-08-24T04:06:30;8.23;;;7.43;;
18657;SDS011;9458;50.942;5.074;2022-08-24T04:08:58;11.10;;;8.30;;
18657;SDS011;9458;50.942;5.074;2022-08-24T04:11:27;9.55;;;8.50;;
18657;SDS011;9458;50.942;5.074;2022-08-24T04:13:56;9.60;;;8.60;;
18657;SDS011;9458;50.942;5.074;2022-08-24T04:16:25;10.20;;;8.63;;
18657;SDS011;9458;50.942;5.074;2022-08-24T04:18:55;13.35;;;9.63;;
18657;SDS011;9458;50.942;5.074;2022-08-24T04:21:23;12.57;;;9.95;;
18657;SDS011;9458;50.942;5.074;2022-08-24T04:23:51;13.63;;;9.60;;
18657;SDS011;9458;50.942;5.074;2022-08-24T04:26:20;11.80;;;9.85;;
18657;SDS011;9458;50.942;5.074;2022-08-24T04:28:50;10.73;;;9.63;;
18657;SDS011;9458;50.942;5.074;2022-08-24T04:31:17;13.73;;;11.13;;
18657;SDS011;9458;50.942;5.074;2022-08-24T04:33:45;14.45;;;12.20;;
18657;SDS011;9458;50.942;5.074;2022-08-24T04:36:14;18.42;;;13.20;;
18657;SDS011;9458;50.942;5.074;2022-08-24T04:38:43;18.20;;;13.90;;
18657;SDS011;9458;50.942;5.074;2022-08-24T04:41:12;16.35;;;12.88;;
18657;SDS011;9458;50.942;5.074;2022-08-24T04:43:40;16.13;;;13.30;;
18657;SDS011;9458;50.942;5.074;2022-08-24T04:46:11;16.15;;;12.93;;
18657;SDS011;9458;50.942;5.074;2022-08-24T04:48:40;14.30;;;11.48;;
18657;SDS011;9458;50.942;5.074;2022-08-24T04:51:09;12.70;;;10.15;;
18657;SDS011;9458;50.942;5.074;2022-08-24T04:53:38;11.80;;;9.93;;
18657;SDS011;9458;50.942;5.074;2022-08-24T04:56:08;12.32;;;9.48;;
18657;SDS011;9458;50.942;5.074;2022-08-24T04:58:37;10.50;;;9.13;;
18657;SDS011;9458;50.942;5.074;2022-08-24T05:01:05;9.40;;;8.35;;
18657;SDS011;9458;50.942;5.074;2022-08-24T05:03:35;10.38;;;9.13;;
18657;SDS011;9458;50.942;5.074;2022-08-24T05:06:03;10.02;;;9.02;;
18657;SDS011;9458;50.942;5.074;2022-08-24T05:08:31;10.48;;;8.90;;
18657;SDS011;9458;50.942;5.074;2022-08-24T05:10:59;10.80;;;9.40;;
18657;SDS011;9458;50.942;5.074;2022-08-24T05:13:32;9.70;;;8.70;;
18657;SDS011;9458;50.942;5.074;2022-08-24T05:15:59;11.82;;;9.18;;
18657;SDS011;9458;50.942;5.074;2022-08-24T05:18:27;13.48;;;10.00;;
18657;SDS011;9458;50.942;5.074;2022-08-24T05:20:58;10.63;;;9.55;;
18657;SDS011;9458;50.942;5.074;2022-08-24T05:23:26;11.57;;;9.55;;
18657;SDS011;9458;50.942;5.074;2022-08-24T05:26:02;11.48;;;8.20;;
18657;SDS011;9458;50.942;5.074;2022-08-24T05:28:32;13.07;;;8.98;;
18657;SDS011;9458;50.942;5.074;2022-08-24T05:31:07;11.45;;;9.80;;
18657;SDS011;9458;50.942;5.074;2022-08-24T05:33:36;9.35;;;8.45;;
18657;SDS011;9458;50.942;5.074;2022-08-24T05:36:05;11.43;;;9.32;;
18657;SDS011;9458;50.942;5.074;2022-08-24T05:38:41;11.95;;;9.85;;
18657;SDS011;9458;50.942;5.074;2022-08-24T05:41:09;12.10;;;9.35;;
18657;SDS011;9458;50.942;5.074;2022-08-24T05:43:36;9.32;;;8.20;;
18657;SDS011;9458;50.942;5.074;2022-08-24T05:46:04;8.45;;;7.65;;
18657;SDS011;9458;50.942;5.074;2022-08-24T05:48:32;8.70;;;7.80;;
18657;SDS011;9458;50.942;5.074;2022-08-24T05:51:01;9.40;;;8.50;;
18657;SDS011;9458;50.942;5.074;2022-08-24T05:53:32;13.20;;;11.57;;
18657;SDS011;9458;50.942;5.074;2022-08-24T05:56:01;12.90;;;11.60;;
18657;SDS011;9458;50.942;5.074;2022-08-24T05:58:28;10.43;;;9.23;;
18657;SDS011;9458;50.942;5.074;2022-08-24T06:00:56;10.00;;;8.68;;
18657;SDS011;9458;50.942;5.074;2022-08-24T06:03:24;13.25;;;8.75;;
18657;SDS011;9458;50.942;5.074;2022-08-24T06:05:51;10.38;;;9.05;;
18657;SDS011;9458;50.942;5.074;2022-08-24T06:08:19;11.18;;;9.25;;
18657;SDS011;9458;50.942;5.074;2022-08-24T06:10:48;11.63;;;10.25;;
18657;SDS011;9458;50.942;5.074;2022-08-24T06:13:15;11.18;;;9.77;;
18657;SDS011;9458;50.942;5.074;2022-08-24T06:15:43;14.68;;;13.15;;
18657;SDS011;9458;50.942;5.074;2022-08-24T06:18:10;13.55;;;12.07;;
18657;SDS011;9458;50.942;5.074;2022-08-24T06:20:38;14.82;;;13.30;;
18657;SDS011;9458;50.942;5.074;2022-08-24T06:23:07;13.90;;;12.50;;
18657;SDS011;9458;50.942;5.074;2022-08-24T06:25:37;13.77;;;12.48;;
18657;SDS011;9458;50.942;5.074;2022-08-24T06:28:24;13.50;;;12.20;;
18657;SDS011;9458;50.942;5.074;2022-08-24T06:30:59;13.32;;;12.13;;
18657;SDS011;9458;50.942;5.074;2022-08-24T06:33:28;13.50;;;12.32;;
18657;SDS011;9458;50.942;5.074;2022-08-24T06:35:55;15.40;;;14.00;;
18657;SDS011;9458;50.942;5.074;2022-08-24T06:38:23;15.48;;;13.98;;
18657;SDS011;9458;50.942;5.074;2022-08-24T06:40:50;15.13;;;13.82;;
18657;SDS011;9458;50.942;5.074;2022-08-24T06:43:18;16.65;;;15.25;;
18657;SDS011;9458;50.942;5.074;2022-08-24T06:45:48;15.68;;;14.38;;
18657;SDS011;9458;50.942;5.074;2022-08-24T06:48:16;16.85;;;15.10;;
18657;SDS011;9458;50.942;5.074;2022-08-24T06:50:43;17.63;;;15.82;;
18657;SDS011;9458;50.942;5.074;2022-08-24T06:53:11;16.95;;;15.45;;
18657;SDS011;9458;50.942;5.074;2022-08-24T06:55:43;17.02;;;15.43;;
18657;SDS011;9458;50.942;5.074;2022-08-24T06:58:12;15.57;;;14.13;;
18657;SDS011;9458;50.942;5.074;2022-08-24T07:00:39;17.25;;;15.65;;
18657;SDS011;9458;50.942;5.074;2022-08-24T07:03:08;17.05;;;15.30;;
18657;SDS011;9458;50.942;5.074;2022-08-24T07:05:36;17.30;;;15.70;;
18657;SDS011;9458;50.942;5.074;2022-08-24T07:08:05;18.10;;;16.40;;
18657;SDS011;9458;50.942;5.074;2022-08-24T07:10:34;16.95;;;15.45;;
18657;SDS011;9458;50.942;5.074;2022-08-24T07:13:02;17.70;;;15.90;;
18657;SDS011;9458;50.942;5.074;2022-08-24T07:15:29;19.30;;;17.27;;
18657;SDS011;9458;50.942;5.074;2022-08-24T07:17:57;17.95;;;16.15;;
18657;SDS011;9458;50.942;5.074;2022-08-24T07:20:28;16.75;;;15.10;;
18657;SDS011;9458;50.942;5.074;2022-08-24T07:22:55;17.58;;;14.82;;
18657;SDS011;9458;50.942;5.074;2022-08-24T07:25:23;18.27;;;16.48;;
18657;SDS011;9458;50.942;5.074;2022-08-24T07:27:51;17.00;;;15.30;;
18657;SDS011;9458;50.942;5.074;2022-08-24T07:30:19;14.95;;;13.60;;
18657;SDS011;9458;50.942;5.074;2022-08-24T07:32:46;15.82;;;14.40;;
18657;SDS011;9458;50.942;5.074;2022-08-24T07:35:14;16.35;;;14.88;;
18657;SDS011;9458;50.942;5.074;2022-08-24T07:37:44;15.23;;;13.93;;
18657;SDS011;9458;50.942;5.074;2022-08-24T07:40:12;16.55;;;15.15;;
18657;SDS011;9458;50.942;5.074;2022-08-24T07:42:39;16.70;;;15.20;;
18657;SDS011;9458;50.942;5.074;2022-08-24T07:45:08;15.25;;;14.05;;
18657;SDS011;9458;50.942;5.074;2022-08-24T07:47:36;18.52;;;16.77;;
18657;SDS011;9458;50.942;5.074;2022-08-24T07:50:05;18.30;;;16.48;;
18657;SDS011;9458;50.942;5.074;2022-08-24T07:52:33;20.42;;;18.63;;
18657;SDS011;9458;50.942;5.074;2022-08-24T07:55:03;19.98;;;17.98;;
18657;SDS011;9458;50.942;5.074;2022-08-24T07:57:32;20.17;;;18.25;;
18657;SDS011;9458;50.942;5.074;2022-08-24T07:59:59;20.40;;;18.60;;
18657;SDS011;9458;50.942;5.074;2022-08-24T08:02:28;19.05;;;17.27;;
18657;SDS011;9458;50.942;5.074;2022-08-24T08:04:56;19.05;;;17.35;;
18657;SDS011;9458;50.942;5.074;2022-08-24T08:07:24;18.60;;;16.92;;
18657;SDS011;9458;50.942;5.074;2022-08-24T08:09:53;18.63;;;17.02;;
18657;SDS011;9458;50.942;5.074;2022-08-24T08:12:22;17.70;;;16.00;;
18657;SDS011;9458;50.942;5.074;2022-08-24T08:14:50;17.48;;;15.88;;
18657;SDS011;9458;50.942;5.074;2022-08-24T08:17:17;16.73;;;15.27;;
18657;SDS011;9458;50.942;5.074;2022-08-24T08:19:45;15.90;;;14.32;;
18657;SDS011;9458;50.942;5.074;2022-08-24T08:22:12;18.42;;;16.73;;
18657;SDS011;9458;50.942;5.074;2022-08-24T08:24:57;16.33;;;14.93;;
18657;SDS011;9458;50.942;5.074;2022-08-24T08:27:26;17.92;;;16.05;;
18657;SDS011;9458;50.942;5.074;2022-08-24T08:29:54;16.85;;;15.23;;
18657;SDS011;9458;50.942;5.074;2022-08-24T08:32:21;15.25;;;13.77;;
18657;SDS011;9458;50.942;5.074;2022-08-24T08:34:49;14.57;;;13.35;;
18657;SDS011;9458;50.942;5.074;2022-08-24T08:37:19;16.08;;;14.68;;
18657;SDS011;9458;50.942;5.074;2022-08-24T08:39:47;15.52;;;13.60;;
18657;SDS011;9458;50.942;5.074;2022-08-24T08:42:22;15.23;;;13.63;;
18657;SDS011;9458;50.942;5.074;2022-08-24T08:45:00;12.07;;;11.18;;
18657;SDS011;9458;50.942;5.074;2022-08-24T08:50:56;14.27;;;13.07;;
18657;SDS011;9458;50.942;5.074;2022-08-24T08:57:01;13.93;;;12.70;;
18657;SDS011;9458;50.942;5.074;2022-08-24T08:59:46;12.95;;;11.77;;
18657;SDS011;9458;50.942;5.074;2022-08-24T09:02:37;10.38;;;9.32;;
18657;SDS011;9458;50.942;5.074;2022-08-24T09:08:26;8.98;;;8.10;;
18657;SDS011;9458;50.942;5.074;2022-08-24T09:11:07;8.63;;;7.93;;
18657;SDS011;9458;50.942;5.074;2022-08-24T09:13:46;8.50;;;7.70;;
18657;SDS011;9458;50.942;5.074;2022-08-24T09:19:29;9.45;;;8.75;;
18657;SDS011;9458;50.942;5.074;2022-08-24T09:22:12;9.73;;;8.82;;
18657;SDS011;9458;50.942;5.074;2022-08-24T09:27:51;9.98;;;9.15;;
18657;SDS011;9458;50.942;5.074;2022-08-24T09:30:34;10.48;;;9.57;;
18657;SDS011;9458;50.942;5.074;2022-08-24T09:33:19;9.18;;;8.38;;
18657;SDS011;9458;50.942;5.074;2022-08-24T09:35:57;9.00;;;8.07;;
18657;SDS011;9458;50.942;5.074;2022-08-24T09:38:55;8.52;;;7.63;;
18657;SDS011;9458;50.942;5.074;2022-08-24T09:41:37;8.90;;;8.10;;
18657;SDS011;9458;50.942;5.074;2022-08-24T09:47:50;9.70;;;8.85;;
18657;SDS011;9458;50.942;5.074;2022-08-24T09:50:48;9.50;;;8.55;;
18657;SDS011;9458;50.942;5.074;2022-08-24T09:53:45;9.98;;;9.18;;
18657;SDS011;9458;50.942;5.074;2022-08-24T09:56:38;9.45;;;8.63;;
18657;SDS011;9458;50.942;5.074;2022-08-24T09:59:23;8.23;;;7.00;;
18657;SDS011;9458;50.942;5.074;2022-08-24T10:02:39;8.15;;;7.45;;
18657;SDS011;9458;50.942;5.074;2022-08-24T10:05:20;8.15;;;6.20;;
18657;SDS011;9458;50.942;5.074;2022-08-24T10:07:59;8.02;;;6.32;;
18657;SDS011;9458;50.942;5.074;2022-08-24T10:10:34;7.35;;;6.65;;
18657;SDS011;9458;50.942;5.074;2022-08-24T10:13:13;6.90;;;6.30;;
18657;SDS011;9458;50.942;5.074;2022-08-24T10:15:54;7.10;;;6.10;;
18657;SDS011;9458;50.942;5.074;2022-08-24T10:18:36;8.48;;;6.13;;
18657;SDS011;9458;50.942;5.074;2022-08-24T10:21:15;5.30;;;4.88;;
18657;SDS011;9458;50.942;5.074;2022-08-24T10:23:56;5.65;;;4.90;;
18657;SDS011;9458;50.942;5.074;2022-08-24T10:26:39;6.28;;;5.78;;
18657;SDS011;9458;50.942;5.074;2022-08-24T10:29:30;6.60;;;6.00;;
18657;SDS011;9458;50.942;5.074;2022-08-24T10:32:13;8.13;;;5.50;;
18657;SDS011;9458;50.942;5.074;2022-08-24T10:34:54;4.70;;;4.30;;
18657;SDS011;9458;50.942;5.074;2022-08-24T10:37:36;6.70;;;5.70;;
18657;SDS011;9458;50.942;5.074;2022-08-24T10:40:40;5.95;;;5.43;;
18657;SDS011;9458;50.942;5.074;2022-08-24T10:46:21;6.15;;;5.55;;
18657;SDS011;9458;50.942;5.074;2022-08-24T10:49:20;4.75;;;4.03;;
18657;SDS011;9458;50.942;5.074;2022-08-24T10:52:37;4.93;;;3.70;;
18657;SDS011;9458;50.942;5.074;2022-08-24T10:55:19;3.42;;;3.20;;
18657;SDS011;9458;50.942;5.074;2022-08-24T10:57:54;5.55;;;4.82;;
18657;SDS011;9458;50.942;5.074;2022-08-24T11:00:39;3.78;;;3.42;;
18657;SDS011;9458;50.942;5.074;2022-08-24T11:03:09;6.72;;;4.22;;
18657;SDS011;9458;50.942;5.074;2022-08-24T11:05:41;6.68;;;4.10;;
18657;SDS011;9458;50.942;5.074;2022-08-24T11:08:11;5.85;;;3.72;;
18657;SDS011;9458;50.942;5.074;2022-08-24T11:11:01;4.05;;;3.70;;
18657;SDS011;9458;50.942;5.074;2022-08-24T11:13:34;3.45;;;3.15;;
18657;SDS011;9458;50.942;5.074;2022-08-24T11:16:03;6.97;;;3.35;;
18657;SDS011;9458;50.942;5.074;2022-08-24T11:18:44;4.60;;;3.08;;
18657;SDS011;9458;50.942;5.074;2022-08-24T11:21:18;3.38;;;3.17;;
18657;SDS011;9458;50.942;5.074;2022-08-24T11:24:03;8.32;;;3.75;;
18657;SDS011;9458;50.942;5.074;2022-08-24T11:26:44;6.18;;;3.38;;
18657;SDS011;9458;50.942;5.074;2022-08-24T11:29:17;4.55;;;3.42;;
18657;SDS011;9458;50.942;5.074;2022-08-24T11:31:47;4.18;;;2.80;;
18657;SDS011;9458;50.942;5.074;2022-08-24T11:34:18;5.68;;;3.47;;
18657;SDS011;9458;50.942;5.074;2022-08-24T11:36:58;6.22;;;3.58;;
18657;SDS011;9458;50.942;5.074;2022-08-24T11:39:26;3.30;;;3.00;;
18657;SDS011;9458;50.942;5.074;2022-08-24T11:41:58;4.30;;;3.25;;
18657;SDS011;9458;50.942;5.074;2022-08-24T11:44:38;3.17;;;2.97;;
18657;SDS011;9458;50.942;5.074;2022-08-24T11:47:22;3.13;;;2.85;;
18657;SDS011;9458;50.942;5.074;2022-08-24T11:50:17;4.45;;;2.80;;
18657;SDS011;9458;50.942;5.074;2022-08-24T11:52:54;3.25;;;2.38;;
18657;SDS011;9458;50.942;5.074;2022-08-24T11:55:35;2.17;;;1.98;;
18657;SDS011;9458;50.942;5.074;2022-08-24T11:58:09;2.70;;;1.90;;
18657;SDS011;9458;50.942;5.074;2022-08-24T12:00:51;2.80;;;1.88;;
18657;SDS011;9458;50.942;5.074;2022-08-24T12:03:31;2.58;;;2.05;;
18657;SDS011;9458;50.942;5.074;2022-08-24T12:06:12;2.20;;;2.10;;
18657;SDS011;9458;50.942;5.074;2022-08-24T12:09:00;2.70;;;1.95;;
18657;SDS011;9458;50.942;5.074;2022-08-24T12:11:37;2.72;;;2.40;;
18657;SDS011;9458;50.942;5.074;2022-08-24T12:14:13;2.70;;;2.50;;
18657;SDS011;9458;50.942;5.074;2022-08-24T12:16:50;2.22;;;2.05;;
18657;SDS011;9458;50.942;5.074;2022-08-24T12:19:25;2.55;;;1.80;;
18657;SDS011;9458;50.942;5.074;2022-08-24T12:22:05;4.25;;;2.50;;
18657;SDS011;9458;50.942;5.074;2022-08-24T12:24:37;3.13;;;2.30;;
18657;SDS011;9458;50.942;5.074;2022-08-24T12:27:10;2.67;;;2.47;;
18657;SDS011;9458;50.942;5.074;2022-08-24T12:29:41;3.97;;;2.60;;
18657;SDS011;9458;50.942;5.074;2022-08-24T12:32:16;2.63;;;2.22;;
18657;SDS011;9458;50.942;5.074;2022-08-24T12:34:48;2.88;;;2.17;;
18657;SDS011;9458;50.942;5.074;2022-08-24T12:37:21;2.63;;;2.25;;
18657;SDS011;9458;50.942;5.074;2022-08-24T12:39:55;3.35;;;1.83;;
18657;SDS011;9458;50.942;5.074;2022-08-24T12:42:33;2.53;;;2.10;;
18657;SDS011;9458;50.942;5.074;2022-08-24T12:45:07;2.35;;;2.15;;
18657;SDS011;9458;50.942;5.074;2022-08-24T12:47:41;3.13;;;2.30;;
18657;SDS011;9458;50.942;5.074;2022-08-24T12:50:19;4.25;;;2.30;;
18657;SDS011;9458;50.942;5.074;2022-08-24T12:55:56;2.58;;;2.33;;
18657;SDS011;9458;50.942;5.074;2022-08-24T12:58:49;5.35;;;2.20;;
18657;SDS011;9458;50.942;5.074;2022-08-24T13:01:25;2.30;;;1.95;;
18657;SDS011;9458;50.942;5.074;2022-08-24T13:04:05;2.53;;;1.90;;
18657;SDS011;9458;50.942;5.074;2022-08-24T13:06:46;3.58;;;2.10;;
18657;SDS011;9458;50.942;5.074;2022-08-24T13:09:28;3.55;;;2.53;;
18657;SDS011;9458;50.942;5.074;2022-08-24T13:11:58;2.33;;;2.13;;
18657;SDS011;9458;50.942;5.074;2022-08-24T13:14:48;3.35;;;2.10;;
18657;SDS011;9458;50.942;5.074;2022-08-24T13:17:16;3.70;;;2.17;;
18657;SDS011;9458;50.942;5.074;2022-08-24T13:19:46;2.08;;;1.95;;
18657;SDS011;9458;50.942;5.074;2022-08-24T13:22:46;2.08;;;1.88;;
18657;SDS011;9458;50.942;5.074;2022-08-24T13:25:37;3.03;;;2.00;;
18657;SDS011;9458;50.942;5.074;2022-08-24T13:28:26;3.65;;;1.92;;
18657;SDS011;9458;50.942;5.074;2022-08-24T13:31:02;2.17;;;1.92;;
18657;SDS011;9458;50.942;5.074;2022-08-24T13:33:40;3.55;;;1.90;;
18657;SDS011;9458;50.942;5.074;2022-08-24T13:39:10;3.00;;;2.30;;
18657;SDS011;9458;50.942;5.074;2022-08-24T13:41:59;3.53;;;2.25;;
18657;SDS011;9458;50.942;5.074;2022-08-24T13:44:48;3.45;;;2.00;;
18657;SDS011;9458;50.942;5.074;2022-08-24T13:47:29;3.25;;;2.00;;
18657;SDS011;9458;50.942;5.074;2022-08-24T13:50:07;3.08;;;2.00;;
18657;SDS011;9458;50.942;5.074;2022-08-24T13:52:41;4.38;;;2.10;;
18657;SDS011;9458;50.942;5.074;2022-08-24T13:55:27;2.45;;;1.90;;
18657;SDS011;9458;50.942;5.074;2022-08-24T13:58:10;4.25;;;2.10;;
18657;SDS011;9458;50.942;5.074;2022-08-24T14:00:45;2.53;;;2.20;;
18657;SDS011;9458;50.942;5.074;2022-08-24T14:06:33;2.80;;;2.25;;
18657;SDS011;9458;50.942;5.074;2022-08-24T14:09:17;4.25;;;2.22;;
18657;SDS011;9458;50.942;5.074;2022-08-24T14:15:09;2.15;;;2.00;;
18657;SDS011;9458;50.942;5.074;2022-08-24T14:17:45;3.50;;;2.08;;
18657;SDS011;9458;50.942;5.074;2022-08-24T14:23:12;1.90;;;1.77;;
18657;SDS011;9458;50.942;5.074;2022-08-24T14:25:52;2.78;;;2.10;;
18657;SDS011;9458;50.942;5.074;2022-08-24T14:41:04;2.08;;;1.88;;
18657;SDS011;9458;50.942;5.074;2022-08-24T14:43:48;2.28;;;1.77;;
18657;SDS011;9458;50.942;5.074;2022-08-24T14:46:42;5.38;;;2.10;;
18657;SDS011;9458;50.942;5.074;2022-08-24T14:49:15;5.63;;;2.10;;
18657;SDS011;9458;50.942;5.074;2022-08-24T14:51:58;3.13;;;2.15;;
18657;SDS011;9458;50.942;5.074;2022-08-24T14:54:35;4.80;;;2.03;;
18657;SDS011;9458;50.942;5.074;2022-08-24T14:57:16;2.38;;;2.17;;
18657;SDS011;9458;50.942;5.074;2022-08-24T15:00:03;2.30;;;2.00;;
18657;SDS011;9458;50.942;5.074;2022-08-24T15:05:46;2.45;;;1.80;;
18657;SDS011;9458;50.942;5.074;2022-08-24T15:08:29;2.20;;;2.00;;
18657;SDS011;9458;50.942;5.074;2022-08-24T15:11:09;3.28;;;2.10;;
18657;SDS011;9458;50.942;5.074;2022-08-24T15:13:43;2.20;;;2.00;;
18657;SDS011;9458;50.942;5.074;2022-08-24T15:16:16;3.15;;;2.20;;
18657;SDS011;9458;50.942;5.074;2022-08-24T15:18:48;2.22;;;2.10;;
18657;SDS011;9458;50.942;5.074;2022-08-24T15:21:39;2.95;;;2.05;;
18657;SDS011;9458;50.942;5.074;2022-08-24T15:24:15;3.55;;;2.20;;
18657;SDS011;9458;50.942;5.074;2022-08-24T15:26:55;2.28;;;1.80;;
18657;SDS011;9458;50.942;5.074;2022-08-24T15:29:29;2.88;;;2.10;;
18657;SDS011;9458;50.942;5.074;2022-08-24T15:32:01;3.70;;;2.15;;
18657;SDS011;9458;50.942;5.074;2022-08-24T15:34:33;2.25;;;2.08;;
18657;SDS011;9458;50.942;5.074;2022-08-24T15:37:05;3.28;;;2.28;;
18657;SDS011;9458;50.942;5.074;2022-08-24T15:39:33;2.60;;;1.80;;
18657;SDS011;9458;50.942;5.074;2022-08-24T15:42:06;3.10;;;2.30;;
18657;SDS011;9458;50.942;5.074;2022-08-24T15:44:37;3.58;;;2.38;;
18657;SDS011;9458;50.942;5.074;2022-08-24T15:47:12;3.08;;;2.55;;
18657;SDS011;9458;50.942;5.074;2022-08-24T15:49:49;4.13;;;2.38;;
18657;SDS011;9458;50.942;5.074;2022-08-24T15:55:33;2.10;;;2.00;;
18657;SDS011;9458;50.942;5.074;2022-08-24T16:00:58;2.88;;;2.10;;
18657;SDS011;9458;50.942;5.074;2022-08-24T16:03:46;2.42;;;2.22;;
18657;SDS011;9458;50.942;5.074;2022-08-24T16:06:17;2.55;;;2.30;;
18657;SDS011;9458;50.942;5.074;2022-08-24T16:08:56;2.55;;;2.10;;
18657;SDS011;9458;50.942;5.074;2022-08-24T16:11:27;4.20;;;2.33;;
18657;SDS011;9458;50.942;5.074;2022-08-24T16:13:58;4.07;;;2.63;;
18657;SDS011;9458;50.942;5.074;2022-08-24T16:16:30;2.70;;;2.30;;
18657;SDS011;9458;50.942;5.074;2022-08-24T16:19:02;3.80;;;2.85;;
18657;SDS011;9458;50.942;5.074;2022-08-24T16:21:33;2.67;;;2.05;;
18657;SDS011;9458;50.942;5.074;2022-08-24T16:24:06;2.75;;;2.10;;
18657;SDS011;9458;50.942;5.074;2022-08-24T16:26:52;2.50;;;2.30;;
18657;SDS011;9458;50.942;5.074;2022-08-24T16:29:41;2.47;;;2.28;;
18657;SDS011;9458;50.942;5.074;2022-08-24T16:32:14;4.60;;;2.47;;